Time;durP1;ratioP1;P1;durP2;ratioP2;P2;SDS_P1;SDS_P2;PMS_P1;PMS_P2;Temp;Humidity;BMP_temperature;BMP_pressure;BME280_temperature;BME280_humidity;BME280_pressure;Samples;Min_cycle;Max_cycle;Signal;HPM_P1;HPM_P2
2021/10/11 00:01:47;;;;;;;22.40;15.50;;;;;;;4.37;67.47;101517.85;229958;1200;138266;-75
2021/10/11 00:06:49;;;;;;;22.60;17.80;;;;;;;4.32;68.15;101515.16;229841;1195;138619;-75
2021/10/11 00:11:51;;;;;;;22.30;17.40;;;;;;;4.27;68.11;101512.80;230339;1187;138846;-75
2021/10/11 00:16:52;;;;;;;21.40;15.90;;;;;;;4.25;68.70;101506.86;230995;1195;138243;-74
2021/10/11 00:21:54;;;;;;;24.30;15.90;;;;;;;4.23;68.73;101508.46;229745;1194;138192;-75
2021/10/11 00:26:56;;;;;;;20.00;15.50;;;;;;;4.18;68.67;101503.17;230555;1195;137656;-75
2021/10/11 00:31:57;;;;;;;23.50;17.10;;;;;;;4.15;68.12;101497.95;229792;1188;138246;-73
2021/10/11 00:36:59;;;;;;;21.20;17.30;;;;;;;4.13;68.56;101489.13;229811;1196;137942;-75
2021/10/11 00:42:01;;;;;;;19.90;15.50;;;;;;;4.03;69.25;101483.77;230036;1194;138220;-75
2021/10/11 00:47:03;;;;;;;23.10;16.30;;;;;;;4.11;68.32;101474.08;230214;1196;139253;-75
2021/10/11 00:52:05;;;;;;;18.20;14.60;;;;;;;4.24;67.12;101459.07;229998;1196;139053;-75
2021/10/11 00:57:06;;;;;;;20.40;15.90;;;;;;;4.30;66.65;101449.81;234017;1194;138552;-75
2021/10/11 01:02:08;;;;;;;22.40;17.00;;;;;;;4.32;66.87;101444.48;235957;1194;137159;-75
2021/10/11 01:07:11;;;;;;;21.40;15.80;;;;;;;4.20;67.24;101442.20;236086;1195;137950;-75
2021/10/11 01:12:13;;;;;;;24.20;16.80;;;;;;;4.01;67.98;101441.36;231733;1195;137639;-74
2021/10/11 01:17:15;;;;;;;22.70;16.70;;;;;;;3.91;68.14;101432.84;229926;1196;137744;-74
2021/10/11 01:22:18;;;;;;;23.40;17.00;;;;;;;3.90;68.55;101428.54;230831;1196;140789;-75
2021/10/11 01:27:20;;;;;;;22.80;16.40;;;;;;;3.76;68.96;101424.60;229806;1198;138227;-75
2021/10/11 01:32:22;;;;;;;29.70;17.20;;;;;;;3.82;68.48;101412.40;230230;1195;138376;-74
2021/10/11 01:37:23;;;;;;;20.20;15.70;;;;;;;3.80;68.76;101403.61;230330;1195;138881;-72
2021/10/11 01:42:25;;;;;;;21.80;16.40;;;;;;;3.64;69.55;101401.88;229804;1194;138109;-75
2021/10/11 01:47:27;;;;;;;26.00;17.10;;;;;;;3.57;69.82;101400.35;229773;1195;138580;-76
2021/10/11 01:52:29;;;;;;;22.00;16.90;;;;;;;3.52;70.18;101400.59;229732;1195;138203;-75
2021/10/11 01:57:31;;;;;;;21.80;17.30;;;;;;;3.43;70.78;101394.82;229548;1196;138377;-74
2021/10/11 02:02:32;;;;;;;23.50;17.00;;;;;;;3.42;70.41;101382.67;229718;1196;138694;-75
2021/10/11 02:07:34;;;;;;;21.30;16.20;;;;;;;3.43;69.91;101377.76;229752;1196;138317;-74
2021/10/11 02:12:37;;;;;;;22.10;15.10;;;;;;;3.46;69.45;101377.09;229322;1195;137730;-75
2021/10/11 02:17:38;;;;;;;22.70;17.10;;;;;;;3.55;69.21;101371.03;229522;1195;138263;-75
2021/10/11 02:22:40;;;;;;;26.90;17.30;;;;;;;3.55;69.87;101366.99;229502;1196;139073;-76
2021/10/11 02:27:42;;;;;;;20.50;15.00;;;;;;;3.51;69.68;101357.80;230116;1197;138432;-75
2021/10/11 02:32:44;;;;;;;23.00;16.60;;;;;;;3.58;68.94;101339.48;229850;1195;137890;-75
2021/10/11 02:37:45;;;;;;;22.90;16.60;;;;;;;3.58;68.46;101330.94;230392;1196;138320;-75
2021/10/11 02:42:47;;;;;;;23.70;16.10;;;;;;;3.59;68.79;101321.65;229990;1196;139218;-75
2021/10/11 02:47:49;;;;;;;21.60;15.90;;;;;;;3.55;68.92;101321.85;230146;1195;138800;-76
2021/10/11 02:52:50;;;;;;;21.60;15.20;;;;;;;3.53;69.41;101321.66;230382;1196;138743;-74
2021/10/11 02:57:52;;;;;;;20.80;16.60;;;;;;;3.38;70.36;101321.39;229348;1196;139017;-75
2021/10/11 03:02:53;;;;;;;22.80;16.70;;;;;;;3.23;71.18;101323.64;229579;1196;137764;-75
2021/10/11 03:07:55;;;;;;;24.10;17.10;;;;;;;3.04;71.77;101323.11;229466;1197;138305;-73
2021/10/11 03:12:57;;;;;;;22.50;16.40;;;;;;;2.94;72.57;101317.18;229386;1196;138263;-75
2021/10/11 03:17:59;;;;;;;24.60;17.40;;;;;;;2.92;73.18;101315.88;229537;1196;138201;-74
2021/10/11 03:23:00;;;;;;;22.50;17.10;;;;;;;2.84;73.53;101312.47;229528;1196;138346;-75
2021/10/11 03:28:03;;;;;;;21.20;16.20;;;;;;;2.83;73.71;101307.50;229836;1196;137881;-74
2021/10/11 03:33:04;;;;;;;23.80;17.40;;;;;;;2.83;73.67;101299.49;229474;1196;138354;-77
2021/10/11 03:38:06;;;;;;;24.00;17.50;;;;;;;2.80;73.82;101286.23;229527;1196;140251;-75
2021/10/11 03:43:08;;;;;;;26.10;18.20;;;;;;;2.77;73.76;101279.09;229861;1196;139957;-75
2021/10/11 03:48:09;;;;;;;22.90;17.60;;;;;;;2.81;73.36;101275.94;229340;1193;139854;-74
2021/10/11 03:53:13;;;;;;;25.40;18.50;;;;;;;2.79;73.70;101271.67;230264;1196;137825;-76
2021/10/11 03:58:16;;;;;;;26.00;19.30;;;;;;;2.75;73.95;101256.94;230360;1195;137839;-77
2021/10/11 04:03:18;;;;;;;24.50;18.40;;;;;;;2.76;73.91;101255.11;230324;1199;138493;-75
2021/10/11 04:08:21;;;;;;;22.20;17.40;;;;;;;2.75;73.78;101250.13;230888;1196;137827;-75
2021/10/11 04:13:22;;;;;;;25.00;17.70;;;;;;;2.77;73.30;101252.14;231222;1196;138247;-71
2021/10/11 04:18:24;;;;;;;24.30;17.50;;;;;;;2.77;72.87;101250.56;229357;1195;138001;-73
2021/10/11 04:23:26;;;;;;;22.50;16.80;;;;;;;2.79;72.74;101250.81;229221;1196;138121;-74
2021/10/11 04:28:28;;;;;;;24.80;16.70;;;;;;;2.81;72.72;101246.52;229708;1188;137732;-72
2021/10/11 04:33:30;;;;;;;27.90;18.40;;;;;;;2.77;72.81;101243.75;230128;1195;138249;-74
2021/10/11 04:38:31;;;;;;;28.40;18.10;;;;;;;2.65;73.15;101234.81;229840;1197;138824;-75
2021/10/11 04:43:33;;;;;;;24.30;17.50;;;;;;;2.69;73.04;101221.90;230220;1188;139505;-75
2021/10/11 04:48:35;;;;;;;21.70;15.60;;;;;;;2.83;72.20;101216.66;230363;1196;138591;-77
2021/10/11 04:53:36;;;;;;;23.10;17.60;;;;;;;2.94;71.36;101222.11;229463;1197;138260;-74
2021/10/11 04:58:38;;;;;;;25.50;18.80;;;;;;;2.95;71.18;101218.58;229775;1197;137795;-76
2021/10/11 05:03:40;;;;;;;22.30;18.00;;;;;;;2.89;71.08;101217.86;229565;1196;138081;-77
2021/10/11 05:08:41;;;;;;;22.40;16.20;;;;;;;2.73;71.32;101220.81;230368;1196;138222;-76
2021/10/11 05:13:43;;;;;;;21.20;15.10;;;;;;;2.62;71.61;101222.95;230595;1196;138195;-76
2021/10/11 05:18:45;;;;;;;22.20;16.60;;;;;;;2.62;72.20;101217.06;230402;1195;138784;-77
2021/10/11 05:23:47;;;;;;;22.10;16.50;;;;;;;2.66;71.99;101224.14;229956;1196;138625;-76
2021/10/11 05:28:49;;;;;;;25.10;17.80;;;;;;;2.65;72.19;101218.65;230482;1199;138067;-78
2021/10/11 05:33:51;;;;;;;25.30;17.80;;;;;;;2.54;72.58;101215.73;230498;1195;138351;-77
2021/10/11 05:38:53;;;;;;;27.70;18.30;;;;;;;2.55;72.62;101209.27;230399;1196;138355;-76
2021/10/11 05:43:55;;;;;;;26.40;18.90;;;;;;;2.54;72.99;101208.09;229612;1196;138252;-76
2021/10/11 05:48:57;;;;;;;22.90;17.30;;;;;;;2.66;72.66;101204.34;230056;1195;138716;-75
2021/10/11 05:53:59;;;;;;;28.20;19.60;;;;;;;2.82;72.41;101199.80;233137;1196;138554;-75
2021/10/11 05:59:02;;;;;;;25.90;19.50;;;;;;;2.94;72.17;101193.56;232620;1196;138309;-76
2021/10/11 06:04:04;;;;;;;26.40;19.50;;;;;;;3.01;71.97;101194.58;230298;1196;138190;-76
2021/10/11 06:09:06;;;;;;;27.50;19.50;;;;;;;3.01;72.02;101187.81;230352;1196;138193;-74
2021/10/11 06:14:07;;;;;;;28.00;20.60;;;;;;;3.06;72.02;101190.35;229698;1196;138424;-74
2021/10/11 06:19:09;;;;;;;29.60;20.70;;;;;;;3.10;72.02;101191.11;230431;1196;137912;-75
2021/10/11 06:24:12;;;;;;;28.60;19.90;;;;;;;3.15;71.97;101196.92;230154;1196;138043;-76
2021/10/11 06:29:13;;;;;;;30.60;20.60;;;;;;;3.17;71.87;101187.96;230460;1197;138208;-76
2021/10/11 06:34:15;;;;;;;26.10;20.40;;;;;;;3.19;72.31;101195.49;230553;1196;137923;-76
2021/10/11 06:39:17;;;;;;;27.10;19.80;;;;;;;3.10;72.24;101193.74;230397;1196;138222;-75
2021/10/11 06:44:18;;;;;;;29.30;20.60;;;;;;;3.17;72.29;101194.37;230541;1195;138731;-75
2021/10/11 06:49:20;;;;;;;29.80;21.40;;;;;;;3.24;71.86;101193.15;229524;1196;138351;-75
2021/10/11 06:54:22;;;;;;;32.40;20.90;;;;;;;3.40;71.55;101200.60;230038;1196;138264;-75
2021/10/11 06:59:24;;;;;;;27.10;19.90;;;;;;;3.52;71.71;101195.88;230506;1196;138877;-75
2021/10/11 07:04:25;;;;;;;28.00;21.90;;;;;;;3.72;71.15;101193.02;230522;1197;139292;-76
2021/10/11 07:09:27;;;;;;;28.70;21.20;;;;;;;3.81;71.20;101184.98;230476;1196;141261;-75
2021/10/11 07:14:29;;;;;;;32.20;23.40;;;;;;;3.90;71.30;101179.04;230552;1196;137835;-76
2021/10/11 07:19:30;;;;;;;30.60;22.70;;;;;;;4.01;71.48;101174.71;230207;1200;138172;-75
2021/10/11 07:24:32;;;;;;;33.90;24.20;;;;;;;4.13;71.24;101169.82;229532;1197;137950;-75
2021/10/11 07:29:35;;;;;;;33.10;24.30;;;;;;;4.22;70.74;101163.16;229907;1196;138518;-75
2021/10/11 07:34:36;;;;;;;30.10;21.70;;;;;;;4.38;70.37;101161.33;230455;1196;137840;-75
2021/10/11 07:39:38;;;;;;;26.60;20.10;;;;;;;4.50;70.21;101151.83;229620;1197;138146;-75
2021/10/11 07:44:40;;;;;;;29.60;19.90;;;;;;;4.66;69.65;101147.91;230408;1196;138235;-76
2021/10/11 07:49:41;;;;;;;24.70;18.60;;;;;;;4.84;68.53;101145.52;230882;1196;137801;-76
2021/10/11 07:54:43;;;;;;;29.00;20.00;;;;;;;5.06;67.22;101137.77;230798;1197;137791;-74
2021/10/11 07:59:45;;;;;;;28.90;20.30;;;;;;;5.23;67.38;101127.27;229646;1196;138401;-76
2021/10/11 08:04:46;;;;;;;26.10;18.10;;;;;;;5.58;66.68;101117.80;230307;1195;139249;-75
2021/10/11 08:09:48;;;;;;;26.00;18.40;;;;;;;5.96;64.78;101110.33;229629;1196;140135;-75
2021/10/11 08:14:50;;;;;;;24.00;17.90;;;;;;;6.15;63.84;101104.80;229687;1197;139027;-75
2021/10/11 08:19:51;;;;;;;24.10;17.30;;;;;;;6.29;63.68;101100.16;230600;1196;138169;-76
2021/10/11 08:24:53;;;;;;;23.90;16.50;;;;;;;6.35;62.71;101093.64;232171;1196;138790;-76
2021/10/11 08:29:55;;;;;;;21.90;16.80;;;;;;;6.41;62.87;101087.58;235022;1195;137841;-74
2021/10/11 08:34:57;;;;;;;20.60;15.10;;;;;;;6.48;63.49;101083.22;230149;1196;138229;-76
2021/10/11 08:39:58;;;;;;;25.10;16.20;;;;;;;6.57;62.32;101071.37;230578;1195;138203;-76
2021/10/11 08:45:00;;;;;;;22.90;16.30;;;;;;;6.64;62.40;101068.09;230186;1187;137849;-75
2021/10/11 08:50:04;;;;;;;17.80;14.40;;;;;;;6.72;62.42;101066.13;230686;1196;137993;-76
2021/10/11 08:55:06;;;;;;;18.60;14.00;;;;;;;6.76;61.42;101059.69;229954;1197;138215;-75
2021/10/11 09:00:16;;;;;;;16.40;11.90;;;;;;;6.86;60.68;101049.86;230342;1196;138084;-76
2021/10/11 09:05:26;;;;;;;15.40;11.60;;;;;;;7.00;59.21;101038.95;229770;1195;140317;-76
2021/10/11 09:10:29;;;;;;;16.60;11.40;;;;;;;7.24;58.76;101030.66;230613;1196;138105;-75
2021/10/11 09:15:31;;;;;;;19.60;13.50;;;;;;;7.51;60.11;101029.67;230186;1196;138200;-75
2021/10/11 09:20:39;;;;;;;15.20;12.90;;;;;;;7.68;60.65;101026.64;229625;1197;138524;-75
2021/10/11 09:25:41;;;;;;;21.00;12.80;;;;;;;7.81;61.23;101014.41;230574;1195;138805;-76
2021/10/11 09:30:45;;;;;;;16.80;11.80;;;;;;;8.05;59.90;101006.53;230500;1197;138141;-75
2021/10/11 09:35:49;;;;;;;16.60;10.10;;;;;;;8.35;56.83;101003.27;230594;1195;138205;-75
2021/10/11 09:40:56;;;;;;;15.80;11.00;;;;;;;8.39;56.53;100999.44;230556;1195;137967;-75
2021/10/11 09:46:13;;;;;;;16.40;9.40;;;;;;;8.61;55.02;100999.94;230235;1196;138416;-76
2021/10/11 09:51:15;;;;;;;13.40;10.00;;;;;;;8.92;52.77;100993.36;230225;1196;138253;-75
2021/10/11 09:56:17;;;;;;;12.00;9.10;;;;;;;8.98;53.20;100991.41;230295;1196;138504;-75
2021/10/11 10:01:21;;;;;;;13.10;8.00;;;;;;;9.17;53.31;100981.57;230566;1195;139987;-74
2021/10/11 10:06:28;;;;;;;15.60;9.60;;;;;;;9.26;51.95;100977.70;229659;1196;137959;-71
2021/10/11 10:11:32;;;;;;;11.60;8.60;;;;;;;9.77;50.61;100973.44;229760;1193;138051;-75
2021/10/11 10:16:35;;;;;;;12.00;8.70;;;;;;;10.13;48.10;100972.39;230062;1196;137746;-75
2021/10/11 10:21:39;;;;;;;17.40;12.40;;;;;;;10.47;47.53;100971.86;229907;1195;138271;-76
2021/10/11 10:26:42;;;;;;;11.90;8.60;;;;;;;10.62;46.41;100972.59;230608;1196;138263;-76
2021/10/11 10:31:45;;;;;;;16.20;9.10;;;;;;;10.68;46.54;100959.25;230669;1196;138261;-77
2021/10/11 10:36:59;;;;;;;15.70;9.30;;;;;;;10.75;46.60;100952.77;231197;1196;138204;-75
2021/10/11 10:42:01;;;;;;;13.70;9.30;;;;;;;10.88;47.14;100948.02;230797;1195;138522;-76
2021/10/11 10:47:03;;;;;;;12.90;8.80;;;;;;;11.32;45.23;100943.21;230751;1195;137994;-77
2021/10/11 10:52:16;;;;;;;12.50;8.70;;;;;;;11.62;45.39;100938.23;230766;1195;138424;-77
2021/10/11 10:57:22;;;;;;;12.50;8.40;;;;;;;11.89;44.92;100933.59;230863;1197;138001;-74
2021/10/11 11:02:24;;;;;;;;;;;;;;;12.52;43.14;100929.66;230480;1196;138460;-71
2021/10/11 11:07:37;;;;;;;16.00;9.90;;;;;;;12.61;41.88;100924.90;229902;1196;124646;-74
2021/10/11 11:12:45;;;;;;;14.40;9.40;;;;;;;12.83;41.24;100916.84;230393;1196;223721;-76
2021/10/11 11:17:46;;;;;;;14.10;10.00;;;;;;;13.81;39.11;100901.07;229834;1196;138746;-76
2021/10/11 11:22:49;;;;;;;17.60;11.30;;;;;;;14.48;37.66;100897.02;230616;1195;138183;-74
2021/10/11 11:27:57;;;;;;;12.70;9.00;;;;;;;14.71;36.48;100892.81;230362;1196;138711;-76
2021/10/11 11:33:09;;;;;;;13.10;10.00;;;;;;;17.14;32.62;100875.52;230516;1195;138326;-75
2021/10/11 11:38:12;;;;;;;15.20;9.90;;;;;;;19.53;29.04;100858.02;229632;1189;138239;-75
2021/10/11 11:43:14;;;;;;;14.40;9.50;;;;;;;19.40;27.58;100854.91;229860;1195;138546;-75
2021/10/11 11:48:20;;;;;;;16.70;11.20;;;;;;;16.10;31.77;100852.77;229696;1196;138373;-74
2021/10/11 11:53:24;;;;;;;13.00;9.80;;;;;;;14.16;36.03;100850.61;229648;1197;141438;-75
2021/10/11 11:58:25;;;;;;;11.10;8.60;;;;;;;13.47;38.01;100850.70;231021;1196;138672;-76
2021/10/11 12:03:30;;;;;;;12.90;9.10;;;;;;;13.03;37.92;100848.20;235453;1195;138025;-73
2021/10/11 12:08:32;;;;;;;9.40;8.20;;;;;;;12.73;39.10;100844.47;236398;1195;140045;-74
2021/10/11 12:13:45;;;;;;;10.10;8.50;;;;;;;12.58;39.77;100833.66;230692;1195;138249;-76
2021/10/11 12:18:47;;;;;;;12.10;7.50;;;;;;;12.35;40.09;100829.55;230249;1196;138409;-76
2021/10/11 12:23:50;;;;;;;10.70;6.50;;;;;;;12.28;39.04;100829.76;229964;1196;138875;-76
2021/10/11 12:29:07;;;;;;;9.50;7.50;;;;;;;12.07;39.28;100824.30;229898;1197;139280;-73
2021/10/11 12:34:13;;;;;;;9.40;7.00;;;;;;;12.04;39.52;100821.01;230775;1181;138386;-76
2021/10/11 12:39:16;;;;;;;7.50;5.90;;;;;;;12.16;38.72;100818.55;230775;1196;139353;-75
2021/10/11 12:44:25;;;;;;;10.60;7.20;;;;;;;12.16;38.08;100809.05;230937;1195;138112;-76
2021/10/11 12:49:38;;;;;;;11.30;6.50;;;;;;;12.10;38.64;100798.53;231108;1195;138442;-74
2021/10/11 12:54:40;;;;;;;6.90;5.50;;;;;;;12.13;39.31;100797.23;230105;1196;138610;-76
2021/10/11 12:59:42;;;;;;;13.50;6.80;;;;;;;12.17;38.75;100793.98;229783;1197;138818;-75
2021/10/11 13:04:43;;;;;;;11.90;5.60;;;;;;;12.01;38.80;100791.97;229837;1197;138476;-72
2021/10/11 13:09:45;;;;;;;10.30;6.40;;;;;;;11.96;38.96;100781.91;230146;1195;138503;-76
2021/10/11 13:14:47;;;;;;;8.60;6.20;;;;;;;11.94;39.33;100777.67;230931;1195;138610;-77
2021/10/11 13:19:48;;;;;;;8.60;7.70;;;;;;;12.02;38.99;100771.02;230382;1196;138096;-75
2021/10/11 13:24:51;;;;;;;5.70;5.00;;;;;;;12.12;38.82;100767.96;230375;1195;138679;-75
2021/10/11 14:28:02;;;;;;;11.50;4.70;;;;;;;11.65;41.17;100721.90;230078;1196;138173;-76
2021/10/11 15:58:37;;;;;;;20.10;13.80;;;;;;;9.94;59.09;100689.80;230127;1196;138315;-79
2021/10/11 16:08:41;;;;;;;11.80;7.10;;;;;;;9.76;59.30;100681.77;230104;1195;138170;-77
2021/10/11 16:13:43;;;;;;;10.60;7.00;;;;;;;9.72;58.44;100683.04;230121;1196;138904;-77
2021/10/11 16:18:45;;;;;;;11.40;8.80;;;;;;;9.55;59.61;100688.82;230270;1196;138204;-76
2021/10/11 16:23:47;;;;;;;17.20;9.90;;;;;;;9.39;60.78;100691.29;230525;1187;139014;-76
2021/10/11 16:28:49;;;;;;;16.40;12.30;;;;;;;9.46;58.84;100682.41;229991;1196;138383;-76
2021/10/11 16:33:51;;;;;;;17.60;12.80;;;;;;;9.49;60.27;100685.52;230055;1196;138765;-76
2021/10/11 16:38:53;;;;;;;18.20;12.30;;;;;;;9.35;60.54;100682.31;230405;1195;138615;-76
2021/10/11 16:43:55;;;;;;;20.20;13.00;;;;;;;9.35;61.65;100681.98;230369;1195;139125;-75
2021/10/11 16:48:57;;;;;;;19.70;15.50;;;;;;;9.19;63.32;100684.52;230187;1196;138812;-78
2021/10/11 16:59:08;;;;;;;20.60;15.00;;;;;;;9.08;61.72;100685.27;230486;1187;138609;-80
2021/10/11 17:04:10;;;;;;;18.30;14.20;;;;;;;9.17;60.68;100675.89;232795;1195;138765;-78
2021/10/11 17:09:11;;;;;;;20.80;14.20;;;;;;;9.21;60.19;100675.70;230088;1189;138333;-77
2021/10/11 17:14:14;;;;;;;21.50;14.90;;;;;;;9.24;60.06;100673.28;230027;1196;138342;-77
2021/10/11 17:19:15;;;;;;;19.60;15.10;;;;;;;9.30;59.38;100672.44;230340;1196;138210;-77
2021/10/11 17:24:17;;;;;;;17.20;13.60;;;;;;;9.24;60.50;100672.59;230428;1197;138308;-80
2021/10/11 17:29:19;;;;;;;19.30;14.30;;;;;;;9.01;63.40;100673.41;230170;1196;138511;-79
2021/10/11 17:34:21;;;;;;;21.10;15.20;;;;;;;8.87;63.64;100674.83;230168;1197;138142;-78
2021/10/11 17:39:22;;;;;;;18.00;15.80;;;;;;;8.81;63.39;100666.08;230260;1196;138530;-79
2021/10/11 17:44:25;;;;;;;19.00;16.10;;;;;;;8.78;63.97;100669.48;230438;1196;139129;-78
2021/10/11 17:49:27;;;;;;;23.50;19.00;;;;;;;8.81;62.98;100659.03;230378;1196;138231;-78
2021/10/11 17:54:29;;;;;;;29.00;21.50;;;;;;;8.94;61.52;100655.95;230136;1196;138423;-78
2021/10/11 17:59:30;;;;;;;29.20;21.40;;;;;;;8.98;61.20;100650.09;230294;1195;138242;-77
2021/10/11 18:04:32;;;;;;;26.80;21.40;;;;;;;8.87;61.76;100646.22;230543;1196;138598;-78
2021/10/11 18:09:34;;;;;;;31.30;21.70;;;;;;;8.88;61.37;100640.63;230260;1196;138165;-79
2021/10/11 18:14:36;;;;;;;26.90;20.60;;;;;;;8.91;60.79;100641.83;230074;1196;138591;-81
2021/10/11 18:19:38;;;;;;;31.40;23.40;;;;;;;8.91;60.99;100640.95;230184;1196;138501;-77
2021/10/11 18:24:40;;;;;;;34.60;24.60;;;;;;;8.78;61.69;100646.84;229903;1196;138251;-76
2021/10/11 18:29:41;;;;;;;28.40;23.80;;;;;;;8.67;62.37;100644.81;230051;1182;139021;-77
2021/10/11 18:34:43;;;;;;;30.20;22.20;;;;;;;8.63;62.06;100641.48;230005;1196;138630;-77
2021/10/11 18:39:45;;;;;;;32.60;24.90;;;;;;;8.61;62.33;100643.94;230040;1193;138721;-76
2021/10/11 18:44:47;;;;;;;31.70;24.80;;;;;;;8.54;62.32;100636.23;230132;1196;138320;-77
2021/10/11 18:49:49;;;;;;;35.10;25.80;;;;;;;8.50;62.30;100633.67;230235;1181;138547;-81
2021/10/11 18:54:50;;;;;;;35.90;26.30;;;;;;;8.42;62.81;100634.50;229566;1196;138327;-74
2021/10/11 18:59:52;;;;;;;35.00;26.10;;;;;;;8.39;62.52;100630.91;230558;1196;138134;-76
2021/10/11 19:04:54;;;;;;;34.20;26.60;;;;;;;8.35;62.48;100628.38;231399;1196;138642;-75
2021/10/11 19:09:55;;;;;;;34.80;26.80;;;;;;;8.32;62.48;100624.96;230238;1196;138089;-76
2021/10/11 19:14:57;;;;;;;35.20;24.50;;;;;;;8.28;62.85;100622.14;230013;1196;138091;-77
2021/10/11 19:20:00;;;;;;;34.20;25.50;;;;;;;8.26;62.98;100621.63;229789;1196;138744;-76
2021/10/11 19:25:02;;;;;;;35.90;26.30;;;;;;;8.18;63.21;100620.56;230332;1196;139236;-76
2021/10/11 19:30:05;;;;;;;35.10;24.80;;;;;;;8.16;63.75;100616.39;230227;1196;138468;-76
2021/10/11 19:35:08;;;;;;;32.90;25.10;;;;;;;8.13;63.79;100620.88;230215;1196;138101;-76
2021/10/11 19:40:10;;;;;;;31.00;23.80;;;;;;;8.13;63.65;100618.70;230051;1196;140337;-76
2021/10/11 19:45:13;;;;;;;37.40;27.00;;;;;;;8.04;64.26;100619.84;230390;1196;138339;-74
2021/10/11 19:50:15;;;;;;;35.60;27.00;;;;;;;7.95;64.70;100613.97;230075;1196;138121;-75
2021/10/11 19:55:16;;;;;;;35.20;25.80;;;;;;;7.91;64.80;100609.94;230138;1196;138699;-75
2021/10/11 20:00:19;;;;;;;33.70;25.00;;;;;;;7.95;64.60;100608.65;230250;1196;138746;-73
2021/10/11 20:05:21;;;;;;;39.70;27.20;;;;;;;7.87;64.85;100605.15;229962;1196;138759;-75
2021/10/11 20:10:23;;;;;;;38.30;27.20;;;;;;;7.73;65.27;100598.08;230139;1196;138565;-78
2021/10/11 20:15:25;;;;;;;35.80;26.20;;;;;;;7.60;65.75;100597.60;230330;1196;138243;-77
2021/10/11 20:20:27;;;;;;;33.30;26.00;;;;;;;7.45;66.91;100595.91;230019;1196;138494;-77
2021/10/11 20:25:29;;;;;;;32.60;24.70;;;;;;;7.29;68.01;100591.96;229964;1196;137956;-76
2021/10/11 20:30:32;;;;;;;39.10;27.50;;;;;;;7.27;67.78;100585.64;230247;1196;138722;-76
2021/10/11 20:35:34;;;;;;;36.40;27.20;;;;;;;7.28;67.66;100581.72;230223;1196;138231;-75
2021/10/11 20:40:38;;;;;;;37.30;26.10;;;;;;;7.22;67.97;100579.59;230204;1196;138187;-78
2021/10/11 20:45:45;;;;;;;36.40;25.90;;;;;;;7.20;68.27;100576.08;230069;1196;139324;-75
2021/10/11 20:50:47;;;;;;;35.80;26.70;;;;;;;7.27;67.92;100570.89;229869;1196;139657;-75
2021/10/11 20:55:49;;;;;;;35.50;26.50;;;;;;;7.25;67.72;100566.36;230359;1196;139508;-75
2021/10/11 21:00:57;;;;;;;37.70;28.90;;;;;;;7.17;68.15;100565.98;230314;1196;139077;-76
2021/10/11 21:06:00;;;;;;;37.30;29.00;;;;;;;7.06;68.79;100558.13;229626;1191;138210;-73
2021/10/11 21:11:05;;;;;;;35.80;27.90;;;;;;;7.02;69.20;100557.91;230105;1196;138178;-72
2021/10/11 21:16:09;;;;;;;34.20;27.30;;;;;;;6.99;69.58;100553.27;231950;1195;138397;-75
2021/10/11 21:21:11;;;;;;;35.80;26.60;;;;;;;7.01;69.43;100547.98;231844;1196;139347;-75
2021/10/11 21:26:14;;;;;;;36.20;26.40;;;;;;;7.15;69.21;100540.61;233236;1195;138494;-75
2021/10/11 21:31:16;;;;;;;36.20;26.40;;;;;;;7.24;69.07;100535.05;230661;1196;138053;-77
2021/10/11 21:36:18;;;;;;;31.90;25.60;;;;;;;7.26;69.11;100537.57;230610;1196;138119;-74
2021/10/11 21:41:19;;;;;;;34.50;27.30;;;;;;;7.20;70.23;100533.48;230611;1196;138151;-77
2021/10/11 21:46:24;;;;;;;33.10;24.60;;;;;;;7.15;70.61;100535.66;230697;1197;138113;-75
2021/10/11 21:51:26;;;;;;;35.50;25.10;;;;;;;7.14;70.97;100535.23;230610;1195;138517;-75
2021/10/11 21:56:28;;;;;;;35.80;25.10;;;;;;;7.21;70.97;100531.69;230708;1180;138526;-76
2021/10/11 22:01:29;;;;;;;31.40;25.10;;;;;;;7.26;70.92;100528.08;230630;1196;138672;-76
2021/10/11 22:06:31;;;;;;;33.30;27.50;;;;;;;7.28;71.58;100524.17;230274;1195;138628;-73
2021/10/11 22:11:33;;;;;;;37.80;27.60;;;;;;;7.25;71.51;100520.26;229569;1196;139012;-72
2021/10/11 22:16:35;;;;;;;31.40;25.90;;;;;;;7.14;72.51;100523.12;229929;1194;139254;-76
2021/10/11 22:21:38;;;;;;;32.50;26.60;;;;;;;7.04;73.04;100516.73;230924;1196;138970;-75
2021/10/11 22:26:39;;;;;;;34.00;26.00;;;;;;;7.00;73.22;100515.69;230598;1195;138871;-76
2021/10/11 22:31:41;;;;;;;36.90;26.20;;;;;;;6.97;73.60;100512.98;230374;1196;139974;-75
2021/10/11 22:36:42;;;;;;;33.10;25.80;;;;;;;7.02;73.44;100511.83;230441;1196;138989;-76
2021/10/11 22:41:44;;;;;;;35.30;27.30;;;;;;;7.02;73.44;100509.34;230689;1196;138344;-75
2021/10/11 22:46:46;;;;;;;34.20;25.90;;;;;;;6.93;74.20;100504.70;231234;1196;138247;-78
2021/10/11 22:51:57;;;;;;;32.50;25.30;;;;;;;6.80;74.81;100504.38;230649;1196;138803;-75
2021/10/11 22:56:58;;;;;;;33.00;24.60;;;;;;;6.68;75.15;100498.17;230669;1195;138338;-75
2021/10/11 23:02:00;;;;;;;30.60;24.50;;;;;;;6.55;75.81;100499.25;230583;1195;138744;-76
2021/10/11 23:07:02;;;;;;;36.90;28.20;;;;;;;6.44;76.58;100501.55;229801;1202;138529;-76
2021/10/11 23:12:21;;;;;;;35.50;28.10;;;;;;;6.44;77.01;100499.44;230565;1197;139702;-76
2021/10/11 23:17:23;;;;;;;33.30;26.10;;;;;;;6.52;77.19;100488.65;230741;1196;138783;-76
2021/10/11 23:22:25;;;;;;;33.70;27.00;;;;;;;6.59;77.18;100491.91;230588;1195;138438;-76
2021/10/11 23:27:27;;;;;;;37.90;30.00;;;;;;;6.57;77.23;100484.67;231022;1196;138366;-76
2021/10/11 23:32:28;;;;;;;39.30;30.60;;;;;;;6.46;77.79;100482.94;230998;1196;138803;-73
2021/10/11 23:37:30;;;;;;;36.10;28.80;;;;;;;6.34;78.59;100487.79;231092;1196;139264;-74
2021/10/11 23:42:31;;;;;;;39.00;27.80;;;;;;;6.26;79.23;100486.92;230733;1196;138879;-75
2021/10/11 23:47:33;;;;;;;38.70;27.90;;;;;;;6.26;79.40;100485.46;230834;1194;139732;-75
2021/10/11 23:52:35;;;;;;;32.40;27.40;;;;;;;6.32;79.62;100489.70;229891;1197;141230;-74
2021/10/11 23:57:37;;;;;;;39.60;30.00;;;;;;;6.42;79.80;100488.77;230705;1180;138861;-74
